Time;durP1;ratioP1;P1;durP2;ratioP2;P2;SDS_P1;SDS_P2;PMS_P1;PMS_P2;Temp;Humidity;BMP_temperature;BMP_pressure;BME280_temperature;BME280_humidity;BME280_pressure;Samples;Min_cycle;Max_cycle;Signal;HPM_P1;HPM_P2
2022/04/29 00:00:11;;;;;;;;;;;;;;;;;;4671999;30;19981;-81
2022/04/29 00:02:40;;;;;;;;;;;;;;;;;;4694776;30;19934;-82
2022/04/29 00:05:08;;;;;;;;;;;;;;;;;;4696061;30;19993;-82
2022/04/29 00:07:35;;;;;;;;;;;;;;;;;;4699248;30;20043;-81
2022/04/29 00:10:23;;;;;;;;;;;;;;;;;;4637683;30;20966;-82
2022/04/29 00:12:49;;;;;;;;;;;;;;;;;;4638640;30;19935;-81
2022/04/29 00:15:17;;;;;;;;;;;;;;;;;;4633109;30;19942;-81
2022/04/29 00:17:43;;;;;;;;;;;;;;;;;;4645239;30;19937;-81
2022/04/29 00:20:10;;;;;;;;;;;;;;;;;;4666525;30;20684;-81
2022/04/29 00:22:36;;;;;;;;;;;;;;;;;;4669017;30;19935;-82
2022/04/29 00:25:03;;;;;;;;;;;;;;;;;;4682292;30;19954;-81
2022/04/29 00:27:29;;;;;;;;;;;;;;;;;;4673490;30;19939;-81
2022/04/29 00:29:58;;;;;;;;;;;;;;;;;;4671418;30;19927;-81
2022/04/29 00:32:25;;;;;;;;;;;;;;;;;;4672068;30;19942;-81
2022/04/29 00:34:52;;;;;;;;;;;;;;;;;;4684064;30;20088;-81
2022/04/29 00:37:18;;;;;;;;;;;;;;;;;;4680342;30;19935;-81
2022/04/29 00:39:44;;;;;;;;;;;;;;;;;;4670480;30;19935;-81
2022/04/29 00:42:25;;;;;;;;;;;;;;;;;;4652181;30;19927;-81
2022/04/29 00:44:50;;;;;;;;;;;;;;;;;;4649241;30;20316;-82
2022/04/29 00:47:18;;;;;;;;;;;;;;;;;;4631685;30;19958;-81
2022/04/29 00:49:45;;;;;;;;;;;;;;;;;;4623973;30;19935;-82
2022/04/29 00:52:11;;;;;;;;;;;;;;;;;;4647764;30;19981;-82
2022/04/29 00:54:37;;;;;;;;;;;;;;;;;;4650085;30;19936;-82
2022/04/29 00:57:04;;;;;;;;;;;;;;;;;;4621183;30;19975;-81
2022/04/29 00:59:31;;;;;;;;;;;;;;;;;;4653371;30;20349;-82
2022/04/29 01:01:57;;;;;;;;;;;;;;;;;;4696791;30;19970;-82
2022/04/29 01:04:27;;;;;;;;;;;;;;;;;;4698160;30;19945;-81
2022/04/29 01:06:53;;;;;;;;;;;;;;;;;;4696614;30;19931;-82
2022/04/29 01:09:22;;;;;;;;;;;;;;;;;;4699901;30;20092;-82
2022/04/29 01:11:49;;;;;;;;;;;;;;;;;;4684354;30;20015;-81
2022/04/29 01:14:15;;;;;;;;;;;;;;;;;;4724306;30;20458;-81
2022/04/29 01:16:43;;;;;;;;;;;;;;;;;;4704561;30;19933;-81
2022/04/29 01:19:09;;;;;;;;;;;;;;;;;;4728119;30;19934;-82
2022/04/29 01:21:35;;;;;;;;;;;;;;;;;;4735771;30;19968;-81
2022/04/29 01:24:02;;;;;;;;;;;;;;;;;;4732757;29;19930;-82
2022/04/29 01:26:28;;;;;;;;;;;;;;;;;;4737676;30;19940;-81
2022/04/29 01:28:54;;;;;;;;;;;;;;;;;;4739324;29;19937;-82
2022/04/29 01:31:19;;;;;;;;;;;;;;;;;;4732120;30;20066;-82
2022/04/29 01:33:47;;;;;;;;;;;;;;;;;;4733698;30;19934;-82
2022/04/29 01:36:14;;;;;;;;;;;;;;;;;;4715016;30;19941;-82
2022/04/29 01:38:40;;;;;;;;;;;;;;;;;;4702155;30;19972;-82
2022/04/29 01:41:07;;;;;;;;;;;;;;;;;;4718226;30;20021;-82
2022/04/29 01:43:49;;;;;;;;;;;;;;;;;;4737390;29;19956;-82
2022/04/29 01:46:15;;;;;;;;;;;;;;;;;;4731421;30;19986;-82
2022/04/29 01:48:50;;;;;;;;;;;;;;;;;;4735915;30;19937;-82
2022/04/29 01:51:16;;;;;;;;;;;;;;;;;;4714490;30;20874;-81
2022/04/29 01:53:53;;;;;;;;;;;;;;;;;;4706014;30;20025;-81
2022/04/29 01:56:19;;;;;;;;;;;;;;;;;;4732562;30;19941;-82
2022/04/29 01:58:46;;;;;;;;;;;;;;;;;;4722747;29;20023;-81
2022/04/29 02:01:13;;;;;;;;;;;;;;;;;;4700503;30;20283;-81
2022/04/29 02:03:39;;;;;;;;;;;;;;;;;;4719453;30;20030;-81
2022/04/29 02:06:05;;;;;;;;;;;;;;;;;;4715796;30;20012;-81
2022/04/29 02:08:32;;;;;;;;;;;;;;;;;;4718454;30;19945;-81
2022/04/29 02:10:58;;;;;;;;;;;;;;;;;;4721488;30;19989;-81
2022/04/29 02:13:31;;;;;;;;;;;;;;;;;;4725815;30;19934;-81
2022/04/29 02:16:02;;;;;;;;;;;;;;;;;;4736542;30;20385;-81
2022/04/29 02:18:29;;;;;;;;;;;;;;;;;;4741579;29;19934;-81
2022/04/29 02:20:57;;;;;;;;;;;;;;;;;;4726988;30;19984;-81
2022/04/29 02:23:24;;;;;;;;;;;;;;;;;;4709102;30;19934;-81
2022/04/29 02:25:51;;;;;;;;;;;;;;;;;;4722119;30;19934;-81
2022/04/29 02:28:22;;;;;;;;;;;;;;;;;;4709006;30;19938;-81
2022/04/29 02:30:51;;;;;;;;;;;;;;;;;;4741134;30;20026;-81
2022/04/29 02:33:25;;;;;;;;;;;;;;;;;;4727135;30;19984;-81
2022/04/29 02:35:51;;;;;;;;;;;;;;;;;;4708085;30;19937;-81
2022/04/29 02:38:36;;;;;;;;;;;;;;;;;;4730069;30;19928;-81
2022/04/29 02:41:07;;;;;;;;;;;;;;;;;;4737645;30;19930;-81
2022/04/29 02:43:34;;;;;;;;;;;;;;;;;;4713356;30;19934;-81
2022/04/29 02:46:00;;;;;;;;;;;;;;;;;;4735274;30;20452;-81
2022/04/29 02:48:27;;;;;;;;;;;;;;;;;;4742500;29;20076;-81
2022/04/29 02:51:12;;;;;;;;;;;;;;;;;;4734575;30;20362;-81
2022/04/29 02:53:38;;;;;;;;;;;;;;;;;;4738322;30;19934;-81
2022/04/29 02:56:04;;;;;;;;;;;;;;;;;;4706672;30;20063;-81
2022/04/29 02:58:30;;;;;;;;;;;;;;;;;;4726709;30;19938;-81
2022/04/29 03:00:56;;;;;;;;;;;;;;;;;;4722215;30;19936;-81
2022/04/29 03:03:23;;;;;;;;;;;;;;;;;;4725030;29;19933;-81
2022/04/29 03:05:51;;;;;;;;;;;;;;;;;;4712053;30;20328;-81
2022/04/29 03:08:21;;;;;;;;;;;;;;;;;;4720952;30;19942;-81
2022/04/29 03:10:47;;;;;;;;;;;;;;;;;;4741836;30;20009;-81
2022/04/29 03:13:26;;;;;;;;;;;;;;;;;;4722766;30;20048;-81
2022/04/29 03:15:52;;;;;;;;;;;;;;;;;;4739213;30;20016;-81
2022/04/29 03:18:22;;;;;;;;;;;;;;;;;;4736287;29;19938;-82
2022/04/29 03:20:48;;;;;;;;;;;;;;;;;;4739712;30;20242;-81
2022/04/29 03:23:30;;;;;;;;;;;;;;;;;;4720343;30;20022;-81
2022/04/29 03:25:56;;;;;;;;;;;;;;;;;;4741013;30;19941;-81
2022/04/29 03:28:22;;;;;;;;;;;;;;;;;;4735547;30;20313;-81
2022/04/29 03:30:48;;;;;;;;;;;;;;;;;;4722910;30;20025;-81
2022/04/29 03:33:15;;;;;;;;;;;;;;;;;;4717717;30;19941;-81
2022/04/29 03:35:41;;;;;;;;;;;;;;;;;;4737909;30;20389;-81
2022/04/29 03:38:16;;;;;;;;;;;;;;;;;;4735306;30;21954;-81
2022/04/29 03:40:56;;;;;;;;;;;;;;;;;;4735553;30;19934;-81
2022/04/29 03:43:25;;;;;;;;;;;;;;;;;;4734406;30;20482;-81
2022/04/29 03:45:52;;;;;;;;;;;;;;;;;;4720262;30;19933;-81
2022/04/29 03:48:23;;;;;;;;;;;;;;;;;;4734077;29;20058;-81
2022/04/29 03:50:57;;;;;;;;;;;;;;;;;;4730860;30;20015;-81
2022/04/29 03:53:25;;;;;;;;;;;;;;;;;;4718144;30;19938;-81
2022/04/29 03:55:52;;;;;;;;;;;;;;;;;;4722285;30;19942;-81
2022/04/29 03:58:18;;;;;;;;;;;;;;;;;;4719164;29;20643;-81
2022/04/29 04:00:47;;;;;;;;;;;;;;;;;;4724374;30;19929;-81
2022/04/29 04:03:20;;;;;;;;;;;;;;;;;;4717697;30;19926;-81
2022/04/29 04:08:34;;;;;;;;;;;;;;;;;;4724546;30;19930;-82
2022/04/29 04:11:01;;;;;;;;;;;;;;;;;;4715898;30;19936;-82
2022/04/29 04:13:29;;;;;;;;;;;;;;;;;;4739455;30;19942;-82
2022/04/29 04:15:58;;;;;;;;;;;;;;;;;;4709445;30;19950;-82
2022/04/29 04:18:25;;;;;;;;;;;;;;;;;;4726516;29;21608;-82
2022/04/29 04:20:53;;;;;;;;;;;;;;;;;;4721093;30;20471;-82
2022/04/29 04:23:19;;;;;;;;;;;;;;;;;;4714499;30;19938;-81
2022/04/29 04:25:50;;;;;;;;;;;;;;;;;;4735335;30;19953;-81
2022/04/29 04:28:35;;;;;;;;;;;;;;;;;;4718632;30;19939;-81
2022/04/29 04:31:01;;;;;;;;;;;;;;;;;;4713927;30;19934;-82
2022/04/29 04:33:27;;;;;;;;;;;;;;;;;;4718753;29;19930;-82
2022/04/29 04:35:53;;;;;;;;;;;;;;;;;;4721602;30;20916;-82
2022/04/29 04:38:19;;;;;;;;;;;;;;;;;;4705202;30;19926;-82
2022/04/29 04:40:45;;;;;;;;;;;;;;;;;;4722509;30;19945;-82
2022/04/29 04:43:11;;;;;;;;;;;;;;;;;;4716243;29;20666;-82
2022/04/29 04:45:37;;;;;;;;;;;;;;;;;;4720732;30;20404;-82
2022/04/29 04:48:03;;;;;;;;;;;;;;;;;;4718242;29;19945;-82
2022/04/29 04:50:29;;;;;;;;;;;;;;;;;;4722735;30;20507;-82
2022/04/29 04:52:55;;;;;;;;;;;;;;;;;;4713787;30;19942;-82
2022/04/29 04:55:20;;;;;;;;;;;;;;;;;;4685567;30;19999;-82
2022/04/29 04:57:46;;;;;;;;;;;;;;;;;;4704846;30;19953;-82
2022/04/29 05:00:12;;;;;;;;;;;;;;;;;;4699064;30;19934;-82
2022/04/29 05:02:38;;;;;;;;;;;;;;;;;;4703849;30;19985;-82
2022/04/29 05:05:04;;;;;;;;;;;;;;;;;;4684470;30;19939;-82
2022/04/29 05:07:30;;;;;;;;;;;;;;;;;;4704808;30;19937;-82
2022/04/29 05:09:56;;;;;;;;;;;;;;;;;;4692500;30;19965;-82
2022/04/29 05:12:22;;;;;;;;;;;;;;;;;;4698171;30;19930;-82
2022/04/29 05:14:48;;;;;;;;;;;;;;;;;;4691203;30;19957;-82
2022/04/29 05:17:14;;;;;;;;;;;;;;;;;;4700272;30;19939;-82
2022/04/29 05:19:40;;;;;;;;;;;;;;;;;;4721072;30;19930;-82
2022/04/29 05:22:06;;;;;;;;;;;;;;;;;;4689413;30;20475;-82
2022/04/29 05:24:32;;;;;;;;;;;;;;;;;;4705554;30;20318;-82
2022/04/29 05:26:58;;;;;;;;;;;;;;;;;;4704580;30;20073;-82
2022/04/29 05:29:24;;;;;;;;;;;;;;;;;;4704947;30;19930;-82
2022/04/29 05:31:50;;;;;;;;;;;;;;;;;;4695187;30;20511;-82
2022/04/29 05:34:16;;;;;;;;;;;;;;;;;;4687452;30;20665;-82
2022/04/29 05:36:42;;;;;;;;;;;;;;;;;;4704485;30;20995;-82
2022/04/29 05:44:37;;;;;;;;;;;;;;;;;;4708351;30;19942;-82
2022/04/29 05:47:03;;;;;;;;;;;;;;;;;;4686152;30;20408;-82
2022/04/29 05:49:29;;;;;;;;;;;;;;;;;;4704511;30;20721;-82
2022/04/29 05:51:55;;;;;;;;;;;;;;;;;;4694343;30;20049;-82
2022/04/29 05:54:21;;;;;;;;;;;;;;;;;;4737444;30;19934;-82
2022/04/29 05:56:47;;;;;;;;;;;;;;;;;;4708885;30;19930;-82
2022/04/29 05:59:13;;;;;;;;;;;;;;;;;;4716399;30;20076;-82
2022/04/29 06:01:39;;;;;;;;;;;;;;;;;;4740023;30;20346;-82
2022/04/29 06:04:05;;;;;;;;;;;;;;;;;;4720553;30;19930;-82
2022/04/29 06:06:31;;;;;;;;;;;;;;;;;;4737143;30;22240;-82
2022/04/29 06:08:57;;;;;;;;;;;;;;;;;;4719218;30;19925;-82
2022/04/29 06:11:24;;;;;;;;;;;;;;;;;;4737567;30;19934;-82
2022/04/29 06:13:50;;;;;;;;;;;;;;;;;;4738405;29;19937;-82
2022/04/29 06:16:17;;;;;;;;;;;;;;;;;;4717387;30;19941;-82
2022/04/29 06:18:43;;;;;;;;;;;;;;;;;;4720840;30;20718;-82
2022/04/29 06:21:09;;;;;;;;;;;;;;;;;;4717301;30;19934;-82
2022/04/29 06:23:35;;;;;;;;;;;;;;;;;;4737591;29;20597;-82
2022/04/29 06:26:01;;;;;;;;;;;;;;;;;;4735013;30;20032;-82
2022/04/29 06:28:27;;;;;;;;;;;;;;;;;;4709281;30;19937;-82
2022/04/29 06:30:53;;;;;;;;;;;;;;;;;;4711538;30;20484;-82
2022/04/29 06:33:18;;;;;;;;;;;;;;;;;;4720819;30;19934;-82
2022/04/29 06:35:44;;;;;;;;;;;;;;;;;;4720780;30;19929;-82
2022/04/29 06:38:10;;;;;;;;;;;;;;;;;;4719414;30;20342;-82
2022/04/29 06:40:36;;;;;;;;;;;;;;;;;;4722626;30;19934;-82
2022/04/29 06:43:02;;;;;;;;;;;;;;;;;;4715273;30;19966;-82
2022/04/29 06:45:28;;;;;;;;;;;;;;;;;;4722293;30;19930;-82
2022/04/29 06:47:54;;;;;;;;;;;;;;;;;;4706373;30;19949;-82
2022/04/29 06:50:20;;;;;;;;;;;;;;;;;;4702335;30;19933;-82
2022/04/29 06:52:46;;;;;;;;;;;;;;;;;;4710470;30;19992;-82
2022/04/29 06:55:12;;;;;;;;;;;;;;;;;;4703584;30;20040;-82
2022/04/29 06:57:38;;;;;;;;;;;;;;;;;;4722646;30;19934;-82
2022/04/29 07:00:08;;;;;;;;;;;;;;;;;;4735464;30;19945;-82
2022/04/29 07:02:34;;;;;;;;;;;;;;;;;;4724546;29;19950;-82
2022/04/29 07:05:01;;;;;;;;;;;;;;;;;;4705888;30;19954;-82
2022/04/29 07:07:29;;;;;;;;;;;;;;;;;;4725839;29;19987;-83
2022/04/29 07:09:57;;;;;;;;;;;;;;;;;;4724074;30;19940;-82
2022/04/29 07:12:26;;;;;;;;;;;;;;;;;;4744390;29;19982;-82
2022/04/29 07:14:52;;;;;;;;;;;;;;;;;;4740994;30;19990;-82
2022/04/29 07:17:20;;;;;;;;;;;;;;;;;;4736408;29;19934;-82
2022/04/29 07:19:46;;;;;;;;;;;;;;;;;;4724769;30;19934;-82
2022/04/29 07:22:16;;;;;;;;;;;;;;;;;;4737714;29;20013;-82
2022/04/29 07:24:43;;;;;;;;;;;;;;;;;;4724746;30;19926;-82
2022/04/29 07:27:09;;;;;;;;;;;;;;;;;;4720503;30;20072;-82
2022/04/29 07:29:35;;;;;;;;;;;;;;;;;;4728568;30;19926;-82
2022/04/29 07:32:01;;;;;;;;;;;;;;;;;;4725783;29;19977;-82
2022/04/29 07:42:41;;;;;;;;;;;;;;;;;;4727858;30;19941;-82
2022/04/29 07:45:07;;;;;;;;;;;;;;;;;;4719092;30;20044;-82
2022/04/29 07:47:36;;;;;;;;;;;;;;;;;;4711986;30;19934;-82
2022/04/29 07:50:02;;;;;;;;;;;;;;;;;;4702865;30;20020;-83
2022/04/29 07:52:28;;;;;;;;;;;;;;;;;;4720392;30;20356;-83
2022/04/29 07:54:53;;;;;;;;;;;;;;;;;;4707665;30;20511;-82
2022/04/29 07:57:20;;;;;;;;;;;;;;;;;;4719252;29;19930;-83
2022/04/29 07:59:45;;;;;;;;;;;;;;;;;;4724413;30;20029;-83
2022/04/29 08:02:11;;;;;;;;;;;;;;;;;;4706681;29;19934;-82
2022/04/29 08:04:37;;;;;;;;;;;;;;;;;;4722426;30;19944;-82
2022/04/29 08:07:03;;;;;;;;;;;;;;;;;;4722773;29;19930;-83
2022/04/29 08:09:29;;;;;;;;;;;;;;;;;;4718733;30;19981;-82
2022/04/29 08:11:56;;;;;;;;;;;;;;;;;;4721877;30;19950;-82
2022/04/29 08:14:22;;;;;;;;;;;;;;;;;;4736317;30;19940;-82
2022/04/29 08:16:49;;;;;;;;;;;;;;;;;;4711454;30;20012;-83
2022/04/29 08:19:15;;;;;;;;;;;;;;;;;;4717105;30;19934;-82
2022/04/29 08:21:41;;;;;;;;;;;;;;;;;;4724830;30;19926;-82
2022/04/29 08:24:06;;;;;;;;;;;;;;;;;;4718021;30;19934;-82
2022/04/29 08:26:33;;;;;;;;;;;;;;;;;;4723379;30;19987;-82
2022/04/29 08:28:59;;;;;;;;;;;;;;;;;;4719759;30;19940;-82
2022/04/29 08:31:25;;;;;;;;;;;;;;;;;;4721903;30;20016;-82
2022/04/29 08:33:51;;;;;;;;;;;;;;;;;;4723181;30;21171;-83
2022/04/29 08:36:17;;;;;;;;;;;;;;;;;;4718235;30;19937;-82
2022/04/29 08:38:43;;;;;;;;;;;;;;;;;;4707687;30;19934;-82
2022/04/29 08:41:09;;;;;;;;;;;;;;;;;;4732145;30;19938;-83
2022/04/29 08:43:36;;;;;;;;;;;;;;;;;;4711287;30;19930;-82
2022/04/29 08:46:01;;;;;;;;;;;;;;;;;;4708237;30;19934;-82
2022/04/29 08:48:27;;;;;;;;;;;;;;;;;;4728507;30;19930;-83
2022/04/29 08:50:54;;;;;;;;;;;;;;;;;;4729908;30;20024;-82
2022/04/29 08:53:20;;;;;;;;;;;;;;;;;;4730228;30;19937;-83
2022/04/29 08:58:50;;;;;;;;;;;;;;;;;;4682830;30;19946;-83
2022/04/29 09:01:16;;;;;;;;;;;;;;;;;;4656262;30;19934;-83
2022/04/29 09:03:42;;;;;;;;;;;;;;;;;;4703828;30;19930;-83
2022/04/29 09:06:08;;;;;;;;;;;;;;;;;;4713246;30;19930;-83
2022/04/29 09:08:34;;;;;;;;;;;;;;;;;;4737561;30;19941;-83
2022/04/29 09:11:00;;;;;;;;;;;;;;;;;;4722251;30;19925;-83
2022/04/29 09:13:26;;;;;;;;;;;;;;;;;;4726810;30;20297;-83
2022/04/29 09:15:54;;;;;;;;;;;;;;;;;;4709083;30;19996;-83
2022/04/29 09:18:20;;;;;;;;;;;;;;;;;;4722865;30;19930;-83
2022/04/29 09:20:46;;;;;;;;;;;;;;;;;;4740738;30;19930;-83
2022/04/29 09:23:14;;;;;;;;;;;;;;;;;;4722926;29;20020;-83
2022/04/29 09:25:40;;;;;;;;;;;;;;;;;;4725125;30;19945;-83
2022/04/29 09:28:07;;;;;;;;;;;;;;;;;;4706586;30;19945;-83
2022/04/29 09:30:33;;;;;;;;;;;;;;;;;;4727216;30;19942;-83
2022/04/29 09:32:59;;;;;;;;;;;;;;;;;;4708825;30;19980;-83
2022/04/29 09:35:25;;;;;;;;;;;;;;;;;;4729270;30;20465;-83
2022/04/29 09:40:36;;;;;;;;;;;;;;;;;;4730530;30;19938;-83
2022/04/29 09:43:02;;;;;;;;;;;;;;;;;;4722998;30;20383;-83
2022/04/29 09:45:28;;;;;;;;;;;;;;;;;;4726457;30;19973;-83
2022/04/29 09:47:54;;;;;;;;;;;;;;;;;;4712581;30;20011;-83
2022/04/29 09:50:20;;;;;;;;;;;;;;;;;;4721481;30;19936;-83
2022/04/29 09:52:46;;;;;;;;;;;;;;;;;;4721219;30;19934;-83
2022/04/29 09:55:12;;;;;;;;;;;;;;;;;;4705712;30;20030;-83
2022/04/29 09:57:38;;;;;;;;;;;;;;;;;;4707360;30;21713;-83
2022/04/29 10:00:05;;;;;;;;;;;;;;;;;;4690633;30;19941;-83
2022/04/29 10:02:31;;;;;;;;;;;;;;;;;;4728894;30;21526;-83
2022/04/29 10:04:57;;;;;;;;;;;;;;;;;;4721123;30;19934;-83
2022/04/29 10:07:26;;;;;;;;;;;;;;;;;;4722187;30;19968;-83
2022/04/29 10:09:52;;;;;;;;;;;;;;;;;;4727923;30;20409;-83
2022/04/29 10:12:18;;;;;;;;;;;;;;;;;;4723474;30;21166;-83
2022/04/29 10:14:44;;;;;;;;;;;;;;;;;;4725631;30;20416;-83
2022/04/29 10:22:40;;;;;;;;;;;;;;;;;;4725732;30;19941;-83
2022/04/29 10:25:06;;;;;;;;;;;;;;;;;;4702283;30;19938;-83
2022/04/29 10:27:32;;;;;;;;;;;;;;;;;;4722070;30;19934;-83
2022/04/29 10:29:58;;;;;;;;;;;;;;;;;;4704335;30;20506;-83
2022/04/29 10:32:24;;;;;;;;;;;;;;;;;;4727546;30;20024;-83
2022/04/29 10:34:54;;;;;;;;;;;;;;;;;;4724567;30;20401;-83
2022/04/29 10:37:20;;;;;;;;;;;;;;;;;;4709175;30;19992;-83
2022/04/29 10:39:46;;;;;;;;;;;;;;;;;;4708609;30;19965;-83
2022/04/29 10:42:12;;;;;;;;;;;;;;;;;;4719552;30;19930;-83
2022/04/29 10:44:38;;;;;;;;;;;;;;;;;;4716844;30;20294;-83
2022/04/29 10:47:04;;;;;;;;;;;;;;;;;;4710846;30;19972;-84
2022/04/29 10:49:30;;;;;;;;;;;;;;;;;;4729634;30;19934;-83
2022/04/29 10:51:56;;;;;;;;;;;;;;;;;;4703569;30;19934;-83
2022/04/29 10:54:22;;;;;;;;;;;;;;;;;;4710092;30;20016;-83
2022/04/29 10:56:48;;;;;;;;;;;;;;;;;;4739776;30;20316;-83
2022/04/29 10:59:15;;;;;;;;;;;;;;;;;;4734130;29;19961;-83
2022/04/29 11:01:41;;;;;;;;;;;;;;;;;;4742798;30;19925;-83
2022/04/29 11:04:07;;;;;;;;;;;;;;;;;;4721218;30;19940;-83
2022/04/29 11:06:33;;;;;;;;;;;;;;;;;;4707689;30;20016;-84
2022/04/29 11:08:59;;;;;;;;;;;;;;;;;;4734867;30;19941;-83
2022/04/29 11:11:25;;;;;;;;;;;;;;;;;;4740647;30;19933;-83
2022/04/29 11:13:51;;;;;;;;;;;;;;;;;;4724700;29;20437;-83
2022/04/29 11:16:19;;;;;;;;;;;;;;;;;;4718039;30;19940;-83
2022/04/29 11:18:45;;;;;;;;;;;;;;;;;;4726531;30;19987;-83
2022/04/29 11:26:41;;;;;;;;;;;;;;;;;;4737199;30;19957;-82
2022/04/29 11:29:07;;;;;;;;;;;;;;;;;;4721801;30;19936;-83
2022/04/29 11:31:33;;;;;;;;;;;;;;;;;;4740176;30;19930;-83
2022/04/29 11:33:59;;;;;;;;;;;;;;;;;;4719380;30;19926;-84
2022/04/29 11:36:25;;;;;;;;;;;;;;;;;;4722656;30;19937;-83
2022/04/29 11:38:51;;;;;;;;;;;;;;;;;;4753507;29;19933;-83
2022/04/29 11:41:17;;;;;;;;;;;;;;;;;;4751920;30;19934;-83
2022/04/29 11:43:43;;;;;;;;;;;;;;;;;;4713307;30;19926;-83
2022/04/29 11:46:10;;;;;;;;;;;;;;;;;;4715462;30;20377;-83
2022/04/29 11:48:37;;;;;;;;;;;;;;;;;;4722171;30;20294;-83
2022/04/29 11:51:04;;;;;;;;;;;;;;;;;;4746471;30;19965;-83
2022/04/29 11:53:30;;;;;;;;;;;;;;;;;;4754816;29;20020;-84
2022/04/29 11:55:56;;;;;;;;;;;;;;;;;;4725947;30;20429;-83
2022/04/29 11:58:22;;;;;;;;;;;;;;;;;;4750303;29;19949;-83
2022/04/29 12:00:48;;;;;;;;;;;;;;;;;;4720457;30;20362;-84
2022/04/29 12:03:14;;;;;;;;;;;;;;;;;;4725333;29;19926;-83
2022/04/29 12:05:40;;;;;;;;;;;;;;;;;;4731112;30;20025;-83
2022/04/29 12:08:06;;;;;;;;;;;;;;;;;;4726009;29;20397;-83
2022/04/29 12:10:32;;;;;;;;;;;;;;;;;;4730666;30;19933;-82
2022/04/29 12:12:58;;;;;;;;;;;;;;;;;;4743583;30;20289;-82
2022/04/29 12:15:24;;;;;;;;;;;;;;;;;;4735211;30;19940;-82
2022/04/29 12:17:50;;;;;;;;;;;;;;;;;;4718385;30;20091;-82
2022/04/29 12:20:17;;;;;;;;;;;;;;;;;;4717884;30;19933;-83
2022/04/29 12:22:43;;;;;;;;;;;;;;;;;;4718885;30;19984;-83
2022/04/29 12:25:09;;;;;;;;;;;;;;;;;;4713538;30;20590;-83
2022/04/29 12:27:37;;;;;;;;;;;;;;;;;;4735884;30;20318;-83
2022/04/29 12:35:35;;;;;;;;;;;;;;;;;;4731712;30;19977;-83
2022/04/29 12:38:01;;;;;;;;;;;;;;;;;;4744983;30;19962;-83
2022/04/29 12:40:27;;;;;;;;;;;;;;;;;;4740317;30;19937;-83
2022/04/29 12:42:53;;;;;;;;;;;;;;;;;;4732526;30;19937;-83
2022/04/29 12:45:22;;;;;;;;;;;;;;;;;;4727044;30;19930;-83
2022/04/29 12:47:53;;;;;;;;;;;;;;;;;;4734454;30;20692;-83
2022/04/29 12:50:19;;;;;;;;;;;;;;;;;;4726715;30;19940;-83
2022/04/29 12:52:45;;;;;;;;;;;;;;;;;;4731867;30;20743;-84
2022/04/29 12:55:11;;;;;;;;;;;;;;;;;;4724975;30;20605;-83
2022/04/29 12:57:37;;;;;;;;;;;;;;;;;;4716374;30;20033;-82
2022/04/29 13:00:03;;;;;;;;;;;;;;;;;;4724609;30;19940;-83
2022/04/29 13:02:31;;;;;;;;;;;;;;;;;;4728507;30;19999;-83
2022/04/29 13:05:00;;;;;;;;;;;;;;;;;;4734208;29;19934;-83
2022/04/29 13:07:26;;;;;;;;;;;;;;;;;;4709225;30;19940;-83
2022/04/29 13:09:52;;;;;;;;;;;;;;;;;;4716237;30;19926;-84
2022/04/29 13:12:19;;;;;;;;;;;;;;;;;;4712606;30;20386;-85
2022/04/29 13:14:46;;;;;;;;;;;;;;;;;;4734432;30;19926;-84
2022/04/29 13:17:12;;;;;;;;;;;;;;;;;;4731182;30;19941;-85
2022/04/29 13:19:38;;;;;;;;;;;;;;;;;;4733441;30;20581;-85
2022/04/29 13:22:04;;;;;;;;;;;;;;;;;;4746061;30;19965;-84
2022/04/29 13:24:30;;;;;;;;;;;;;;;;;;4734779;30;19929;-84
2022/04/29 13:26:56;;;;;;;;;;;;;;;;;;4736239;30;19926;-85
2022/04/29 13:29:21;;;;;;;;;;;;;;;;;;4734127;30;20345;-85
2022/04/29 13:31:47;;;;;;;;;;;;;;;;;;4716599;30;20310;-85
2022/04/29 13:34:13;;;;;;;;;;;;;;;;;;4725390;30;20020;-84
2022/04/29 13:36:39;;;;;;;;;;;;;;;;;;4707769;30;20135;-85
2022/04/29 13:39:07;;;;;;;;;;;;;;;;;;4722234;30;19957;-85
2022/04/29 13:41:33;;;;;;;;;;;;;;;;;;4729925;30;20404;-85
2022/04/29 13:43:59;;;;;;;;;;;;;;;;;;4726362;30;19934;-85
2022/04/29 13:46:25;;;;;;;;;;;;;;;;;;4716934;30;19930;-85
2022/04/29 13:48:50;;;;;;;;;;;;;;;;;;4716126;30;20721;-85
2022/04/29 13:51:17;;;;;;;;;;;;;;;;;;4731635;30;19934;-85
2022/04/29 13:53:43;;;;;;;;;;;;;;;;;;4731395;30;19936;-85
2022/04/29 13:56:09;;;;;;;;;;;;;;;;;;4719089;30;19926;-85
2022/04/29 13:58:37;;;;;;;;;;;;;;;;;;4735039;30;20330;-85
2022/04/29 14:01:03;;;;;;;;;;;;;;;;;;4733945;30;19930;-85
2022/04/29 14:03:29;;;;;;;;;;;;;;;;;;4721356;30;19956;-85
2022/04/29 14:05:55;;;;;;;;;;;;;;;;;;4732260;30;19941;-85
2022/04/29 14:08:22;;;;;;;;;;;;;;;;;;4724039;30;19930;-85
2022/04/29 14:10:48;;;;;;;;;;;;;;;;;;4733887;30;20366;-85
2022/04/29 14:13:15;;;;;;;;;;;;;;;;;;4714307;29;19946;-85
2022/04/29 14:15:41;;;;;;;;;;;;;;;;;;4729709;30;19965;-85
2022/04/29 14:18:10;;;;;;;;;;;;;;;;;;4727903;30;19937;-85
2022/04/29 14:20:36;;;;;;;;;;;;;;;;;;4731657;30;20413;-85
2022/04/29 14:23:02;;;;;;;;;;;;;;;;;;4739304;29;19937;-86
2022/04/29 14:25:28;;;;;;;;;;;;;;;;;;4749812;30;19926;-85
2022/04/29 14:27:56;;;;;;;;;;;;;;;;;;4747236;30;19946;-85
2022/04/29 14:30:22;;;;;;;;;;;;;;;;;;4744753;30;19941;-86
2022/04/29 14:32:53;;;;;;;;;;;;;;;;;;4741723;30;19977;-85
2022/04/29 14:35:19;;;;;;;;;;;;;;;;;;4742314;29;20048;-85
2022/04/29 14:37:49;;;;;;;;;;;;;;;;;;4743308;30;20367;-85
2022/04/29 14:40:17;;;;;;;;;;;;;;;;;;4727046;30;19975;-85
2022/04/29 14:42:43;;;;;;;;;;;;;;;;;;4745135;30;20071;-86
2022/04/29 14:45:12;;;;;;;;;;;;;;;;;;4737843;29;19986;-85
2022/04/29 14:47:41;;;;;;;;;;;;;;;;;;4731407;30;19934;-85
2022/04/29 14:50:07;;;;;;;;;;;;;;;;;;4725535;30;19945;-85
2022/04/29 14:52:36;;;;;;;;;;;;;;;;;;4725117;30;19929;-85
2022/04/29 14:55:02;;;;;;;;;;;;;;;;;;4724081;30;20282;-85
2022/04/29 14:57:34;;;;;;;;;;;;;;;;;;4716158;30;19934;-85
2022/04/29 15:00:00;;;;;;;;;;;;;;;;;;4713838;30;20006;-85
2022/04/29 15:02:26;;;;;;;;;;;;;;;;;;4719379;30;19933;-86
2022/04/29 15:04:55;;;;;;;;;;;;;;;;;;4729871;30;20028;-86
2022/04/29 15:07:20;;;;;;;;;;;;;;;;;;4726420;30;20417;-86
2022/04/29 15:18:03;;;;;;;;;;;;;;;;;;4730426;30;20869;-86
2022/04/29 15:20:29;;;;;;;;;;;;;;;;;;4741475;30;19937;-86
2022/04/29 15:22:58;;;;;;;;;;;;;;;;;;4741682;30;20010;-85
2022/04/29 15:25:24;;;;;;;;;;;;;;;;;;4716515;30;19952;-86
2022/04/29 15:27:50;;;;;;;;;;;;;;;;;;4725269;30;19938;-86
2022/04/29 15:30:16;;;;;;;;;;;;;;;;;;4708427;30;19944;-86
2022/04/29 15:32:42;;;;;;;;;;;;;;;;;;4733549;30;19973;-85
2022/04/29 15:35:08;;;;;;;;;;;;;;;;;;4734479;29;19941;-86
2022/04/29 15:37:34;;;;;;;;;;;;;;;;;;4744517;30;19952;-86
2022/04/29 15:40:02;;;;;;;;;;;;;;;;;;4727892;30;20369;-85
2022/04/29 15:42:33;;;;;;;;;;;;;;;;;;4729078;30;19969;-86
2022/04/29 15:44:59;;;;;;;;;;;;;;;;;;4727776;30;19930;-86
2022/04/29 15:47:25;;;;;;;;;;;;;;;;;;4736741;30;19995;-86
2022/04/29 15:49:51;;;;;;;;;;;;;;;;;;4738244;30;19945;-86
2022/04/29 15:52:17;;;;;;;;;;;;;;;;;;4725125;30;22063;-85
2022/04/29 15:54:43;;;;;;;;;;;;;;;;;;4698760;30;19934;-85
2022/04/29 15:57:09;;;;;;;;;;;;;;;;;;4692062;30;20294;-86
2022/04/29 15:59:35;;;;;;;;;;;;;;;;;;4705651;30;20275;-84
2022/04/29 16:02:01;;;;;;;;;;;;;;;;;;4714236;30;19941;-86
2022/04/29 16:04:27;;;;;;;;;;;;;;;;;;4700016;30;19930;-86
2022/04/29 16:06:58;;;;;;;;;;;;;;;;;;4717879;30;19937;-85
2022/04/29 16:09:25;;;;;;;;;;;;;;;;;;4716850;30;19934;-84
2022/04/29 16:11:51;;;;;;;;;;;;;;;;;;4721330;29;20003;-85
2022/04/29 16:14:17;;;;;;;;;;;;;;;;;;4714290;30;20028;-86
2022/04/29 16:16:43;;;;;;;;;;;;;;;;;;4705454;30;19930;-85
2022/04/29 16:21:56;;;;;;;;;;;;;;;;;;4725139;30;19926;-84
2022/04/29 16:27:07;;;;;;;;;;;;;;;;;;4718797;30;19930;-85
2022/04/29 16:29:35;;;;;;;;;;;;;;;;;;4722742;30;19972;-85
2022/04/29 16:32:01;;;;;;;;;;;;;;;;;;4718300;30;19930;-85
2022/04/29 16:34:29;;;;;;;;;;;;;;;;;;4716988;29;19930;-85
2022/04/29 16:36:59;;;;;;;;;;;;;;;;;;4709211;30;19973;-86
2022/04/29 16:39:25;;;;;;;;;;;;;;;;;;4720492;30;19990;-85
2022/04/29 16:41:51;;;;;;;;;;;;;;;;;;4723230;30;19934;-86
2022/04/29 16:44:17;;;;;;;;;;;;;;;;;;4699216;30;20217;-84
2022/04/29 16:46:44;;;;;;;;;;;;;;;;;;4713707;30;20013;-83
2022/04/29 16:49:10;;;;;;;;;;;;;;;;;;4712068;30;19938;-84
2022/04/29 16:51:36;;;;;;;;;;;;;;;;;;4714742;30;19926;-84
2022/04/29 16:54:02;;;;;;;;;;;;;;;;;;4720979;30;19938;-83
2022/04/29 16:56:29;;;;;;;;;;;;;;;;;;4742545;30;20020;-83
2022/04/29 16:59:05;;;;;;;;;;;;;;;;;;4744544;29;19979;-84
2022/04/29 17:01:37;;;;;;;;;;;;;;;;;;4725707;30;19932;-83
2022/04/29 17:04:06;;;;;;;;;;;;;;;;;;4704193;30;19933;-83
2022/04/29 17:06:33;;;;;;;;;;;;;;;;;;4724887;30;20013;-83
2022/04/29 17:09:02;;;;;;;;;;;;;;;;;;4721232;30;20064;-83
2022/04/29 17:11:28;;;;;;;;;;;;;;;;;;4707738;30;19934;-83
2022/04/29 17:13:54;;;;;;;;;;;;;;;;;;4719419;30;20027;-84
2022/04/29 17:16:23;;;;;;;;;;;;;;;;;;4723782;30;19934;-83
2022/04/29 17:18:49;;;;;;;;;;;;;;;;;;4726542;30;20025;-83
2022/04/29 17:21:18;;;;;;;;;;;;;;;;;;4713179;30;24642;-83
2022/04/29 17:23:47;;;;;;;;;;;;;;;;;;4714644;30;19930;-83
2022/04/29 17:26:16;;;;;;;;;;;;;;;;;;4709798;30;20390;-83
2022/04/29 17:28:42;;;;;;;;;;;;;;;;;;4712342;30;20541;-83
2022/04/29 17:31:11;;;;;;;;;;;;;;;;;;4724789;30;19934;-83
2022/04/29 17:33:37;;;;;;;;;;;;;;;;;;4730387;30;20672;-83
2022/04/29 17:36:04;;;;;;;;;;;;;;;;;;4723730;30;19953;-83